createdAt,value
2018-09-14T00:00:04.854Z,0.00
2018-09-14T00:01:04.838Z,0.00
2018-09-14T00:02:04.823Z,0.00
2018-09-14T00:03:04.820Z,0.00
2018-09-14T00:04:04.797Z,0.00
2018-09-14T00:05:04.779Z,0.00
2018-09-14T00:06:04.761Z,0.00
2018-09-14T00:07:04.743Z,0.00
2018-09-14T00:08:04.730Z,0.00
2018-09-14T00:09:04.712Z,0.00
2018-09-14T00:10:04.699Z,0.00
2018-09-14T00:11:04.684Z,0.00
2018-09-14T00:12:04.666Z,0.00
2018-09-14T00:13:04.650Z,0.00
2018-09-14T00:14:04.635Z,0.00
2018-09-14T00:15:04.615Z,0.00
2018-09-14T00:16:04.607Z,0.00
2018-09-14T00:17:04.594Z,0.00
2018-09-14T00:18:04.572Z,0.00
2018-09-14T00:19:04.555Z,0.00
2018-09-14T00:20:04.543Z,0.00
2018-09-14T00:21:04.525Z,0.00
2018-09-14T00:22:04.509Z,0.00
2018-09-14T00:23:04.492Z,0.00
2018-09-14T00:24:04.474Z,0.00
2018-09-14T00:25:04.462Z,0.00
2018-09-14T00:26:04.447Z,0.00
2018-09-14T00:27:04.429Z,0.00
2018-09-14T00:28:04.413Z,0.00
2018-09-14T00:29:04.399Z,0.00
2018-09-14T00:30:04.382Z,0.00
2018-09-14T00:31:04.367Z,0.00
2018-09-14T00:32:04.349Z,0.00
2018-09-14T00:33:04.334Z,0.00
2018-09-14T00:34:04.320Z,0.00
2018-09-14T00:35:04.305Z,0.00
2018-09-14T00:36:04.289Z,0.00
2018-09-14T00:37:04.269Z,0.00
2018-09-14T00:38:04.256Z,0.00
2018-09-14T00:39:04.238Z,0.00
2018-09-14T00:40:04.224Z,0.00
2018-09-14T00:41:04.211Z,0.00
2018-09-14T00:42:04.202Z,0.00
2018-09-14T00:43:04.180Z,0.00
2018-09-14T00:44:04.163Z,0.00
2018-09-14T00:45:04.148Z,0.00
2018-09-14T00:46:04.142Z,0.00
2018-09-14T00:47:04.112Z,0.00
2018-09-14T00:48:04.096Z,0.00
2018-09-14T00:49:04.082Z,0.00
2018-09-14T00:50:04.065Z,0.00
2018-09-14T00:51:04.051Z,0.00
2018-09-14T00:52:04.034Z,0.00
2018-09-14T00:53:04.020Z,0.00
2018-09-14T00:54:04.002Z,0.00
2018-09-14T00:55:03.987Z,0.00
2018-09-14T00:56:03.970Z,0.00
2018-09-14T00:57:03.960Z,0.00
2018-09-14T00:58:03.941Z,0.00
2018-09-14T00:59:03.926Z,0.00
2018-09-14T01:00:03.908Z,0.00
2018-09-14T01:01:03.899Z,0.00
2018-09-14T01:02:03.878Z,0.00
2018-09-14T01:03:03.859Z,0.00
2018-09-14T01:04:03.844Z,0.00
2018-09-14T01:05:03.831Z,0.00
2018-09-14T01:06:03.812Z,0.00
2018-09-14T01:07:03.798Z,0.00
2018-09-14T01:08:03.782Z,0.00
2018-09-14T01:09:03.767Z,0.00
2018-09-14T01:10:03.750Z,0.00
2018-09-14T01:11:03.734Z,0.00
2018-09-14T01:12:03.729Z,0.00
2018-09-14T01:13:03.703Z,0.00
2018-09-14T01:14:03.690Z,0.00
2018-09-14T01:15:03.673Z,0.00
2018-09-14T01:16:03.651Z,0.00
2018-09-14T01:17:03.654Z,0.00
2018-09-14T01:18:03.619Z,0.00
2018-09-14T01:19:03.603Z,0.00
2018-09-14T01:20:03.639Z,0.00
2018-09-14T01:21:03.571Z,0.00
2018-09-14T01:22:03.554Z,0.00
2018-09-14T01:23:03.537Z,0.00
2018-09-14T01:24:03.525Z,0.00
2018-09-14T01:25:03.508Z,0.00
2018-09-14T01:26:03.491Z,0.00
2018-09-14T01:27:03.476Z,0.00
2018-09-14T01:28:03.460Z,0.00
2018-09-14T01:29:03.450Z,0.00
2018-09-14T01:30:03.428Z,0.00
2018-09-14T01:31:03.410Z,0.00
2018-09-14T01:32:03.394Z,0.00
2018-09-14T01:33:03.381Z,0.00
2018-09-14T01:34:03.363Z,0.00
2018-09-14T01:35:03.352Z,0.00
2018-09-14T01:36:03.330Z,0.00
2018-09-14T01:37:03.324Z,0.00
2018-09-14T01:38:03.302Z,0.00
2018-09-14T01:39:03.281Z,0.00
2018-09-14T01:40:03.265Z,0.00
2018-09-14T01:41:03.252Z,0.00
2018-09-14T01:42:03.232Z,0.00
2018-09-14T01:43:03.217Z,0.00
2018-09-14T01:44:03.200Z,0.00
2018-09-14T01:45:03.188Z,0.00
2018-09-14T01:46:03.168Z,0.00
2018-09-14T01:47:03.151Z,0.00
2018-09-14T01:48:03.137Z,0.00
2018-09-14T01:49:03.123Z,0.00
2018-09-14T01:50:03.105Z,0.00
2018-09-14T01:51:03.087Z,0.00
2018-09-14T01:52:03.072Z,0.00
2018-09-14T01:53:03.061Z,0.00
2018-09-14T01:54:03.038Z,0.00
2018-09-14T01:55:03.028Z,0.00
2018-09-14T01:56:03.004Z,0.00
2018-09-14T01:57:02.991Z,0.00
2018-09-14T01:58:02.975Z,0.00
2018-09-14T01:59:02.958Z,0.00
2018-09-14T02:00:02.952Z,0.00
2018-09-14T02:01:02.926Z,0.00
2018-09-14T02:02:02.916Z,0.00
2018-09-14T02:03:02.897Z,0.00
2018-09-14T02:04:02.876Z,0.00
2018-09-14T02:05:02.863Z,0.00
2018-09-14T02:06:02.845Z,0.00
2018-09-14T02:07:02.829Z,0.00
2018-09-14T02:08:02.812Z,0.00
2018-09-14T02:09:02.797Z,0.00
2018-09-14T02:10:02.781Z,0.00
2018-09-14T02:11:02.762Z,0.00
2018-09-14T02:12:02.747Z,0.00
2018-09-14T02:13:02.734Z,0.00
2018-09-14T02:14:02.718Z,0.00
2018-09-14T02:15:02.703Z,0.00
2018-09-14T02:16:02.685Z,0.00
2018-09-14T02:17:02.669Z,0.00
2018-09-14T02:18:02.649Z,0.00
2018-09-14T02:19:02.634Z,0.00
2018-09-14T02:20:02.625Z,0.00
2018-09-14T02:21:02.600Z,0.00
2018-09-14T02:22:02.587Z,0.00
2018-09-14T02:23:02.568Z,0.00
2018-09-14T02:24:02.552Z,0.00
2018-09-14T02:25:02.540Z,0.00
2018-09-14T02:26:02.521Z,0.00
2018-09-14T02:27:02.504Z,0.00
2018-09-14T02:28:02.490Z,0.00
2018-09-14T02:29:02.470Z,0.00
2018-09-14T02:30:02.460Z,0.00
2018-09-14T02:31:02.438Z,0.00
2018-09-14T02:32:02.422Z,0.00
2018-09-14T02:33:02.404Z,0.00
2018-09-14T02:34:02.388Z,0.00
2018-09-14T02:35:02.375Z,0.00
2018-09-14T02:36:02.357Z,0.00
2018-09-14T02:37:02.339Z,0.00
2018-09-14T02:38:02.321Z,0.00
2018-09-14T02:39:02.313Z,0.00
2018-09-14T02:40:02.291Z,0.00
2018-09-14T02:41:02.273Z,0.00
2018-09-14T02:42:02.258Z,0.00
2018-09-14T02:43:02.242Z,0.00
2018-09-14T02:44:02.227Z,0.00
2018-09-14T02:45:02.210Z,0.00
2018-09-14T02:46:02.201Z,0.00
2018-09-14T02:47:02.174Z,0.00
2018-09-14T02:48:02.157Z,0.00
2018-09-14T02:49:02.142Z,0.00
2018-09-14T02:50:02.123Z,0.00
2018-09-14T02:51:02.107Z,0.00
2018-09-14T02:52:02.095Z,0.00
2018-09-14T02:53:02.081Z,0.00
2018-09-14T02:54:02.063Z,0.00
2018-09-14T02:55:02.046Z,0.00
2018-09-14T02:56:02.026Z,0.00
2018-09-14T02:57:02.008Z,0.00
2018-09-14T02:58:02.003Z,0.00
2018-09-14T02:59:01.986Z,0.00
2018-09-14T03:00:02.028Z,0.00
2018-09-14T03:01:01.942Z,0.00
2018-09-14T03:02:01.925Z,0.00
2018-09-14T03:03:01.914Z,0.00
2018-09-14T03:04:01.906Z,0.00
2018-09-14T03:05:01.880Z,0.00
2018-09-14T03:06:01.863Z,0.00
2018-09-14T03:07:01.847Z,0.00
2018-09-14T03:08:01.830Z,0.00
2018-09-14T03:09:01.810Z,0.00
2018-09-14T03:10:01.794Z,0.00
2018-09-14T03:11:01.775Z,0.00
2018-09-14T03:12:01.769Z,0.00
2018-09-14T03:13:01.743Z,0.00
2018-09-14T03:14:01.727Z,0.00
2018-09-14T03:15:01.711Z,0.00
2018-09-14T03:16:01.697Z,0.00
2018-09-14T03:17:01.677Z,0.00
2018-09-14T03:18:01.662Z,0.00
2018-09-14T03:19:01.644Z,0.00
2018-09-14T03:20:01.635Z,0.00
2018-09-14T03:21:01.610Z,0.00
2018-09-14T03:22:01.593Z,0.00
2018-09-14T03:23:01.575Z,0.00
2018-09-14T03:24:01.564Z,0.00
2018-09-14T03:25:01.543Z,0.00
2018-09-14T03:26:01.526Z,0.00
2018-09-14T03:27:01.510Z,0.00
2018-09-14T03:28:01.492Z,0.00
2018-09-14T03:29:01.477Z,0.00
2018-09-14T03:30:01.460Z,0.00
2018-09-14T03:31:01.444Z,0.00
2018-09-14T03:32:01.428Z,0.00
2018-09-14T03:33:01.409Z,0.00
2018-09-14T03:34:01.392Z,0.00
2018-09-14T03:35:01.377Z,0.00
2018-09-14T03:36:01.361Z,0.00
2018-09-14T03:37:01.342Z,0.00
2018-09-14T03:38:01.325Z,0.00
2018-09-14T03:39:01.307Z,0.00
2018-09-14T03:40:01.290Z,0.00
2018-09-14T03:41:01.277Z,0.00
2018-09-14T03:42:01.257Z,0.00
2018-09-14T03:43:01.238Z,0.00
2018-09-14T03:44:01.222Z,0.00
2018-09-14T03:45:01.207Z,0.00
2018-09-14T03:46:01.188Z,0.00
2018-09-14T03:47:01.169Z,0.00
2018-09-14T03:48:01.153Z,0.00
2018-09-14T03:49:01.166Z,0.00
2018-09-14T03:50:01.122Z,0.00
2018-09-14T03:51:01.105Z,0.00
2018-09-14T03:52:01.085Z,0.00
2018-09-14T03:53:01.069Z,0.00
2018-09-14T03:54:01.055Z,0.00
2018-09-14T03:55:01.037Z,0.00
2018-09-14T03:56:01.017Z,0.00
2018-09-14T03:57:01.002Z,0.00
2018-09-14T03:58:00.985Z,0.00
2018-09-14T03:59:00.969Z,0.00
2018-09-14T04:00:00.952Z,0.00
2018-09-14T04:01:00.935Z,0.00
2018-09-14T04:02:00.918Z,0.00
2018-09-14T04:03:00.904Z,0.00
2018-09-14T04:04:00.899Z,0.00
2018-09-14T04:05:00.868Z,0.00
2018-09-14T04:06:00.850Z,0.00
2018-09-14T04:07:00.830Z,0.00
2018-09-14T04:08:00.817Z,0.00
2018-09-14T04:09:00.795Z,0.00
2018-09-14T04:10:00.781Z,0.00
2018-09-14T04:11:00.763Z,0.00
2018-09-14T04:12:00.746Z,0.00
2018-09-14T04:13:00.731Z,0.00
2018-09-14T04:14:00.712Z,0.00
2018-09-14T04:15:00.699Z,0.00
2018-09-14T04:16:00.677Z,0.00
2018-09-14T04:17:00.667Z,0.00
2018-09-14T04:18:00.641Z,0.00
2018-09-14T04:19:00.626Z,0.00
2018-09-14T04:20:00.609Z,0.00
2018-09-14T04:21:00.601Z,0.00
2018-09-14T04:22:00.576Z,0.00
2018-09-14T04:23:00.557Z,0.00
2018-09-14T04:24:00.552Z,0.00
2018-09-14T04:25:00.525Z,0.00
2018-09-14T04:26:00.589Z,0.00
2018-09-14T04:27:00.554Z,0.00
2018-09-14T04:28:00.557Z,0.00
2018-09-14T04:29:00.505Z,0.00
2018-09-14T04:30:00.528Z,0.00
2018-09-14T04:31:00.427Z,4.00
2018-09-14T04:32:00.484Z,4.00
2018-09-14T04:33:00.523Z,0.00
2018-09-14T04:34:00.463Z,0.00
2018-09-14T04:35:00.414Z,4.00
2018-09-14T04:36:00.346Z,0.00
2018-09-14T04:37:00.318Z,4.00
2018-09-14T04:38:00.431Z,4.00
2018-09-14T04:39:00.323Z,4.00
2018-09-14T04:40:00.409Z,8.00
2018-09-14T04:41:00.343Z,8.00
2018-09-14T04:42:00.276Z,12.00
2018-09-14T04:43:00.371Z,16.00
2018-09-14T04:44:00.276Z,16.00
2018-09-14T04:45:00.221Z,20.00
2018-09-14T04:46:00.271Z,20.00
2018-09-14T04:47:00.195Z,28.00
2018-09-14T04:48:00.273Z,28.00
2018-09-14T04:49:00.199Z,32.00
2018-09-14T04:50:00.131Z,40.00
2018-09-14T04:51:00.078Z,48.00
2018-09-14T04:52:00.067Z,52.00
2018-09-14T04:53:00.040Z,60.00
2018-09-14T04:54:00.025Z,68.00
2018-09-14T04:55:00.013Z,72.00
2018-09-14T04:55:59.990Z,80.00
2018-09-14T04:56:59.971Z,92.00
2018-09-14T04:57:59.953Z,100.00
2018-09-14T04:58:59.936Z,108.00
2018-09-14T04:59:59.917Z,120.00
2018-09-14T05:00:59.899Z,132.00
2018-09-14T05:01:59.882Z,148.00
2018-09-14T05:02:59.903Z,160.00
2018-09-14T05:03:59.845Z,172.00
2018-09-14T05:04:59.831Z,192.00
2018-09-14T05:05:59.815Z,208.00
2018-09-14T05:06:59.839Z,224.00
2018-09-14T05:07:59.781Z,244.00
2018-09-14T05:08:59.763Z,264.00
2018-09-14T05:09:59.749Z,284.00
2018-09-14T05:10:59.725Z,308.00
2018-09-14T05:11:59.717Z,332.00
2018-09-14T05:12:59.695Z,356.00
2018-09-14T05:13:59.749Z,384.00
2018-09-14T05:14:59.663Z,412.00
2018-09-14T05:15:59.636Z,444.00
2018-09-14T05:16:59.624Z,472.00
2018-09-14T05:17:59.603Z,508.00
2018-09-14T05:18:59.584Z,540.00
2018-09-14T05:19:59.568Z,576.00
2018-09-14T05:20:59.552Z,608.00
2018-09-14T05:21:59.536Z,648.00
2018-09-14T05:22:59.515Z,688.00
2018-09-14T05:23:59.499Z,728.00
2018-09-14T05:24:59.603Z,772.00
2018-09-14T05:25:59.484Z,816.00
2018-09-14T05:26:59.538Z,860.00
2018-09-14T05:27:59.505Z,904.00
2018-09-14T05:28:59.448Z,948.00
2018-09-14T05:29:59.526Z,996.00
2018-09-14T05:30:59.372Z,1048.00
2018-09-14T05:31:59.453Z,1100.00
2018-09-14T05:32:59.392Z,1156.00
2018-09-14T05:33:59.323Z,1212.00
2018-09-14T05:34:59.304Z,1268.00
2018-09-14T05:35:59.293Z,1320.00
2018-09-14T05:36:59.272Z,1376.00
2018-09-14T05:37:59.250Z,1432.00
2018-09-14T05:38:59.232Z,1492.00
2018-09-14T05:39:59.227Z,1552.00
2018-09-14T05:40:59.201Z,1612.00
2018-09-14T05:41:59.180Z,1676.00
2018-09-14T05:42:59.163Z,1736.00
2018-09-14T05:43:59.151Z,1800.00
2018-09-14T05:44:59.128Z,1868.00
2018-09-14T05:45:59.111Z,1928.00
2018-09-14T05:46:59.093Z,1992.00
2018-09-14T05:47:59.075Z,2056.00
2018-09-14T05:48:59.062Z,2108.00
2018-09-14T05:49:59.057Z,2164.00
2018-09-14T05:50:59.022Z,2216.00
2018-09-14T05:51:59.008Z,2268.00
2018-09-14T05:52:58.987Z,2328.00
2018-09-14T05:53:58.969Z,2392.00
2018-09-14T05:54:58.953Z,2464.00
2018-09-14T05:55:58.937Z,2532.00
2018-09-14T05:56:58.923Z,2596.00
2018-09-14T05:57:58.899Z,2668.00
2018-09-14T05:58:58.885Z,2728.00
2018-09-14T05:59:58.863Z,2784.00
2018-09-14T06:00:58.845Z,2844.00
2018-09-14T06:01:58.833Z,2908.00
2018-09-14T06:02:58.809Z,2976.00
2018-09-14T06:03:58.840Z,3056.00
2018-09-14T06:04:58.774Z,3132.00
2018-09-14T06:05:58.758Z,3204.00
2018-09-14T06:06:58.741Z,3276.00
2018-09-14T06:07:58.725Z,3340.00
2018-09-14T06:08:58.715Z,3396.00
2018-09-14T06:09:58.690Z,3460.00
2018-09-14T06:10:58.671Z,3520.00
2018-09-14T06:11:58.655Z,3576.00
2018-09-14T06:12:58.638Z,3636.00
2018-09-14T06:13:58.628Z,3708.00
2018-09-14T06:14:58.602Z,3776.00
2018-09-14T06:15:58.586Z,3840.00
2018-09-14T06:16:58.641Z,3904.00
2018-09-14T06:17:58.550Z,3980.00
2018-09-14T06:18:58.533Z,4064.00
2018-09-14T06:19:58.516Z,4140.00
2018-09-14T06:20:58.500Z,4224.00
2018-09-14T06:21:58.484Z,4324.00
2018-09-14T06:22:58.536Z,4424.00
2018-09-14T06:23:58.448Z,4520.00
2018-09-14T06:24:58.434Z,4632.00
2018-09-14T06:25:58.413Z,4728.00
2018-09-14T06:26:58.394Z,4836.00
2018-09-14T06:27:58.382Z,4940.00
2018-09-14T06:28:58.362Z,5052.00
2018-09-14T06:29:58.343Z,5156.00
2018-09-14T06:30:58.326Z,5252.00
2018-09-14T06:31:58.318Z,5344.00
2018-09-14T06:32:58.295Z,5400.00
2018-09-14T06:33:58.279Z,5464.00
2018-09-14T06:34:58.259Z,5556.00
2018-09-14T06:35:58.242Z,5660.00
2018-09-14T06:36:58.229Z,5768.00
2018-09-14T06:37:58.216Z,5876.00
2018-09-14T06:38:58.198Z,5992.00
2018-09-14T06:39:58.177Z,6124.00
2018-09-14T06:40:58.165Z,6256.00
2018-09-14T06:41:58.147Z,6404.00
2018-09-14T06:42:58.129Z,6552.00
2018-09-14T06:43:58.110Z,6700.00
2018-09-14T06:44:58.138Z,6864.00
2018-09-14T06:45:58.082Z,7044.00
2018-09-14T06:46:58.062Z,7240.00
2018-09-14T06:47:58.852Z,7460.00
2018-09-14T06:48:58.037Z,7772.00
2018-09-14T06:49:58.018Z,14168.00
2018-09-14T06:50:58.010Z,37600.00
2018-09-14T06:51:57.993Z,57472.00
2018-09-14T06:52:57.971Z,58336.00
2018-09-14T06:53:57.960Z,58784.00
2018-09-14T06:54:57.947Z,57024.00
2018-09-14T06:55:57.930Z,31392.00
2018-09-14T06:56:57.918Z,15196.00
2018-09-14T06:57:57.910Z,40480.00
2018-09-14T06:58:57.888Z,60416.00
2018-09-14T06:59:57.891Z,58144.00
2018-09-14T07:00:57.866Z,57632.00
2018-09-14T07:01:57.857Z,60256.00
2018-09-14T07:02:57.843Z,62976.00
2018-09-14T07:03:57.829Z,61024.00
2018-09-14T07:04:57.824Z,57760.00
2018-09-14T07:05:57.811Z,58080.00
2018-09-14T07:06:57.799Z,59552.00
2018-09-14T07:07:57.792Z,60384.00
2018-09-14T07:08:57.785Z,60864.00
2018-09-14T07:09:57.769Z,63232.00
2018-09-14T07:10:57.764Z,64832.00
2018-09-14T07:11:57.751Z,66176.00
2018-09-14T07:12:57.753Z,66304.00
2018-09-14T07:13:57.739Z,66048.00
2018-09-14T07:14:57.732Z,64480.00
2018-09-14T07:15:57.718Z,66720.00
2018-09-14T07:16:57.724Z,68320.00
2018-09-14T07:17:57.710Z,65888.00
2018-09-14T07:18:57.703Z,65440.00
2018-09-14T07:19:57.700Z,70208.00
2018-09-14T07:20:57.686Z,71712.00
2018-09-14T07:21:57.756Z,65920.00
2018-09-14T07:22:57.675Z,65568.00
2018-09-14T07:23:57.670Z,67872.00
2018-09-14T07:24:57.843Z,67456.00
2018-09-14T07:25:57.658Z,68256.00
2018-09-14T07:26:57.655Z,70272.00
2018-09-14T07:27:57.666Z,72768.00
2018-09-14T07:28:57.700Z,72352.00
2018-09-14T07:29:57.668Z,72640.00
2018-09-14T07:30:57.642Z,70464.00
2018-09-14T07:31:57.637Z,70432.00
2018-09-14T07:32:57.639Z,69056.00
2018-09-14T07:33:57.624Z,66432.00
2018-09-14T07:34:57.618Z,68224.00
2018-09-14T07:35:57.615Z,70560.00
2018-09-14T07:36:57.615Z,71424.00
2018-09-14T07:37:57.612Z,70688.00
2018-09-14T07:38:57.605Z,69152.00
2018-09-14T07:39:57.601Z,67424.00
2018-09-14T07:40:57.600Z,69088.00
2018-09-14T07:41:57.599Z,74496.00
2018-09-14T07:42:57.600Z,75488.00
2018-09-14T07:43:57.594Z,74912.00
2018-09-14T07:44:57.591Z,72672.00
2018-09-14T07:45:57.588Z,73152.00
2018-09-14T07:46:57.592Z,75392.00
2018-09-14T07:47:57.585Z,78016.00
2018-09-14T07:48:57.589Z,77152.00
2018-09-14T07:49:57.584Z,74368.00
2018-09-14T07:50:57.589Z,74944.00
2018-09-14T07:51:57.580Z,76032.00
2018-09-14T07:52:57.594Z,72480.00
2018-09-14T07:53:57.581Z,72256.00
2018-09-14T07:54:57.582Z,73920.00
2018-09-14T07:55:57.579Z,72544.00
2018-09-14T07:56:57.582Z,72128.00
2018-09-14T07:57:57.579Z,72608.00
2018-09-14T07:58:57.584Z,71936.00
2018-09-14T07:59:57.584Z,71136.00
2018-09-14T08:00:57.581Z,71136.00
2018-09-14T08:01:57.589Z,73472.00
2018-09-14T08:02:57.597Z,73920.00
2018-09-14T08:03:57.584Z,74048.00
2018-09-14T08:04:57.587Z,72448.00
2018-09-14T08:05:57.591Z,70304.00
2018-09-14T08:06:57.597Z,72992.00
2018-09-14T08:07:57.590Z,78304.00
2018-09-14T08:08:57.593Z,77344.00
2018-09-14T08:09:57.594Z,75520.00
2018-09-14T08:10:57.596Z,76640.00
2018-09-14T08:11:57.649Z,76480.00
2018-09-14T08:12:57.602Z,73984.00
2018-09-14T08:13:57.604Z,70560.00
2018-09-14T08:14:57.604Z,74816.00
2018-09-14T08:15:57.609Z,75936.00
2018-09-14T08:16:57.610Z,73504.00
2018-09-14T08:17:57.613Z,73792.00
2018-09-14T08:18:57.618Z,74720.00
2018-09-14T08:19:57.637Z,72704.00
2018-09-14T08:20:57.621Z,67520.00
2018-09-14T08:21:57.697Z,72352.00
2018-09-14T08:22:57.622Z,76768.00
2018-09-14T08:23:57.632Z,71936.00
2018-09-14T08:24:57.634Z,73760.00
2018-09-14T08:25:57.652Z,73760.00
2018-09-14T08:26:57.839Z,72736.00
2018-09-14T08:27:57.638Z,72256.00
2018-09-14T08:28:57.648Z,72864.00
2018-09-14T08:29:57.646Z,70016.00
2018-09-14T08:30:57.651Z,69952.00
2018-09-14T08:31:57.649Z,69696.00
2018-09-14T08:32:57.653Z,71712.00
2018-09-14T08:33:57.663Z,67360.00
2018-09-14T08:34:57.656Z,64896.00
2018-09-14T08:35:57.662Z,68576.00
2018-09-14T08:36:57.667Z,70816.00
2018-09-14T08:37:57.668Z,69088.00
2018-09-14T08:38:57.671Z,66848.00
2018-09-14T08:39:57.672Z,68288.00
2018-09-14T08:40:57.680Z,70496.00
2018-09-14T08:41:57.681Z,67424.00
2018-09-14T08:42:57.683Z,65920.00
2018-09-14T08:43:57.685Z,68864.00
2018-09-14T08:44:57.688Z,69216.00
2018-09-14T08:45:57.695Z,64480.00
2018-09-14T08:46:57.697Z,63520.00
2018-09-14T08:47:57.772Z,64736.00
2018-09-14T08:48:57.706Z,64448.00
2018-09-14T08:49:57.703Z,66496.00
2018-09-14T08:50:57.707Z,65568.00
2018-09-14T08:51:57.710Z,65888.00
2018-09-14T08:52:57.711Z,65664.00
2018-09-14T08:53:57.713Z,62464.00
2018-09-14T08:54:57.721Z,64672.00
2018-09-14T08:55:57.720Z,64256.00
2018-09-14T08:56:57.722Z,63840.00
2018-09-14T08:57:57.757Z,60960.00
2018-09-14T08:58:57.730Z,62272.00
2018-09-14T08:59:57.736Z,60672.00
2018-09-14T09:00:57.764Z,59552.00
2018-09-14T09:01:57.742Z,57760.00
2018-09-14T09:02:57.737Z,61760.00
2018-09-14T09:03:57.758Z,58112.00
2018-09-14T09:04:57.744Z,55104.00
2018-09-14T09:05:57.744Z,54528.00
2018-09-14T09:06:57.742Z,55552.00
2018-09-14T09:07:57.776Z,51776.00
2018-09-14T09:08:57.749Z,44064.00
2018-09-14T09:09:57.752Z,41664.00
2018-09-14T09:10:57.760Z,39104.00
2018-09-14T09:11:57.750Z,36448.00
2018-09-14T09:12:57.759Z,33312.00
2018-09-14T09:13:57.749Z,31264.00
2018-09-14T09:14:57.755Z,29408.00
2018-09-14T09:15:57.760Z,28224.00
2018-09-14T09:16:57.752Z,27136.00
2018-09-14T09:17:57.758Z,25600.00
2018-09-14T09:18:57.748Z,24224.00
2018-09-14T09:19:57.756Z,22976.00
2018-09-14T09:20:57.748Z,22304.00
2018-09-14T09:21:57.758Z,21248.00
2018-09-14T09:22:57.757Z,20320.00
2018-09-14T09:23:57.755Z,20192.00
2018-09-14T09:24:57.754Z,19392.00
2018-09-14T09:25:57.752Z,17344.00
2018-09-14T09:26:57.762Z,16704.00
2018-09-14T09:27:57.750Z,16576.00
2018-09-14T09:28:57.750Z,16352.00
2018-09-14T09:29:57.748Z,15936.00
2018-09-14T09:30:57.745Z,15560.00
2018-09-14T09:31:57.742Z,15316.00
2018-09-14T09:32:57.738Z,15108.00
2018-09-14T09:33:57.736Z,14996.00
2018-09-14T09:34:57.754Z,14948.00
2018-09-14T09:35:57.735Z,14612.00
2018-09-14T09:36:57.731Z,14288.00
2018-09-14T09:37:57.735Z,13968.00
2018-09-14T09:38:57.731Z,13792.00
2018-09-14T09:39:57.727Z,13728.00
2018-09-14T09:40:57.724Z,13668.00
2018-09-14T09:41:57.731Z,13548.00
2018-09-14T09:42:57.778Z,13524.00
2018-09-14T09:43:57.784Z,13428.00
2018-09-14T09:44:57.714Z,13372.00
2018-09-14T09:45:57.713Z,13344.00
2018-09-14T09:46:57.710Z,13352.00
2018-09-14T09:47:57.706Z,13348.00
2018-09-14T09:48:57.701Z,13304.00
2018-09-14T09:49:57.701Z,13156.00
2018-09-14T09:50:57.719Z,13040.00
2018-09-14T09:51:57.694Z,12928.00
2018-09-14T09:52:57.687Z,12860.00
2018-09-14T09:53:57.687Z,12796.00
2018-09-14T09:54:57.682Z,12740.00
2018-09-14T09:55:57.680Z,12672.00
2018-09-14T09:56:57.671Z,12616.00
2018-09-14T09:57:57.666Z,12580.00
2018-09-14T09:58:57.662Z,12504.00
2018-09-14T09:59:57.657Z,12408.00
2018-09-14T10:00:57.654Z,12260.00
2018-09-14T10:01:57.650Z,12228.00
2018-09-14T10:02:57.645Z,12152.00
2018-09-14T10:03:57.665Z,12104.00
2018-09-14T10:04:57.633Z,12028.00
2018-09-14T10:05:57.636Z,11908.00
2018-09-14T10:06:57.628Z,11824.00
2018-09-14T10:07:57.620Z,11732.00
2018-09-14T10:08:57.615Z,11668.00
2018-09-14T10:09:57.610Z,11664.00
2018-09-14T10:10:57.605Z,11572.00
2018-09-14T10:11:57.610Z,11512.00
2018-09-14T10:12:57.597Z,11476.00
2018-09-14T10:13:57.637Z,11476.00
2018-09-14T10:14:57.653Z,11372.00
2018-09-14T10:15:57.586Z,11296.00
2018-09-14T10:16:57.576Z,11176.00
2018-09-14T10:17:57.572Z,11216.00
2018-09-14T10:18:57.572Z,11260.00
2018-09-14T10:19:57.557Z,11368.00
2018-09-14T10:20:57.602Z,11308.00
2018-09-14T10:21:57.548Z,8388.00
2018-09-14T10:22:57.549Z,8656.00
2018-09-14T10:23:57.548Z,11716.00
2018-09-14T10:24:57.536Z,11900.00
2018-09-14T10:25:57.526Z,11816.00
2018-09-14T10:26:57.523Z,8548.00
2018-09-14T10:27:57.516Z,8040.00
2018-09-14T10:28:57.556Z,7476.00
2018-09-14T10:29:57.510Z,7648.00
2018-09-14T10:30:57.500Z,7896.00
2018-09-14T10:31:57.497Z,8968.00
2018-09-14T10:32:57.486Z,12604.00
2018-09-14T10:33:57.601Z,12912.00
2018-09-14T10:34:57.533Z,12500.00
2018-09-14T10:35:57.471Z,10384.00
2018-09-14T10:36:57.516Z,7376.00
2018-09-14T10:37:57.457Z,10552.00
2018-09-14T10:38:57.455Z,7180.00
2018-09-14T10:39:57.475Z,6824.00
2018-09-14T10:40:57.456Z,6780.00
2018-09-14T10:41:57.433Z,10372.00
2018-09-14T10:42:57.535Z,8400.00
2018-09-14T10:43:57.454Z,12604.00
2018-09-14T10:44:57.416Z,12696.00
2018-09-14T10:45:57.403Z,12356.00
2018-09-14T10:46:57.409Z,7760.00
2018-09-14T10:47:57.394Z,7084.00
2018-09-14T10:48:57.500Z,11172.00
2018-09-14T10:49:57.381Z,11788.00
2018-09-14T10:50:57.371Z,11844.00
2018-09-14T10:51:57.364Z,9752.00
2018-09-14T10:52:57.358Z,11740.00
2018-09-14T10:53:57.351Z,11824.00
2018-09-14T10:54:57.435Z,11780.00
2018-09-14T10:55:57.338Z,11924.00
2018-09-14T10:56:57.325Z,11668.00
2018-09-14T10:57:57.320Z,11160.00
2018-09-14T10:58:57.312Z,10952.00
2018-09-14T10:59:57.303Z,11032.00
2018-09-14T11:00:57.413Z,8032.00
2018-09-14T11:01:57.297Z,11140.00
2018-09-14T11:02:57.285Z,11452.00
2018-09-14T11:03:57.284Z,11580.00
2018-09-14T11:04:57.275Z,11436.00
2018-09-14T11:05:57.277Z,11660.00
2018-09-14T11:06:57.317Z,11636.00
2018-09-14T11:07:57.257Z,11468.00
2018-09-14T11:08:57.241Z,11136.00
2018-09-14T11:09:57.285Z,9580.00
2018-09-14T11:10:57.234Z,8620.00
2018-09-14T11:11:57.215Z,8060.00
2018-09-14T11:12:57.251Z,7844.00
2018-09-14T11:13:57.203Z,11168.00
2018-09-14T11:14:57.201Z,11316.00
2018-09-14T11:15:57.188Z,11336.00
2018-09-14T11:16:57.185Z,11216.00
2018-09-14T11:17:57.173Z,10928.00
2018-09-14T11:18:57.229Z,10792.00
2018-09-14T11:19:57.159Z,10508.00
2018-09-14T11:20:57.154Z,10516.00
2018-09-14T11:21:57.150Z,10664.00
2018-09-14T11:22:57.147Z,10772.00
2018-09-14T11:23:57.126Z,7320.00
2018-09-14T11:24:57.169Z,7776.00
2018-09-14T11:25:57.114Z,11068.00
2018-09-14T11:26:57.106Z,11188.00
2018-09-14T11:27:57.161Z,11124.00
2018-09-14T11:28:57.088Z,10980.00
2018-09-14T11:29:57.083Z,11184.00
2018-09-14T11:30:57.079Z,10996.00
2018-09-14T11:31:57.074Z,11236.00
2018-09-14T11:32:57.061Z,10776.00
2018-09-14T11:33:57.077Z,11028.00
2018-09-14T11:34:57.041Z,10348.00
2018-09-14T11:35:57.037Z,6108.00
2018-09-14T11:36:57.025Z,5924.00
2018-09-14T11:37:57.181Z,6960.00
2018-09-14T11:38:57.008Z,9248.00
2018-09-14T11:39:57.004Z,7820.00
2018-09-14T11:40:56.995Z,5764.00
2018-09-14T11:41:56.986Z,5716.00
2018-09-14T11:42:56.978Z,5764.00
2018-09-14T11:43:56.972Z,5988.00
2018-09-14T11:44:56.964Z,6196.00
2018-09-14T11:45:56.994Z,10412.00
2018-09-14T11:46:56.944Z,11480.00
2018-09-14T11:47:56.943Z,11632.00
2018-09-14T11:48:56.929Z,7504.00
2018-09-14T11:49:56.921Z,7776.00
2018-09-14T11:50:56.919Z,8200.00
2018-09-14T11:51:56.908Z,10544.00
2018-09-14T11:52:56.898Z,6288.00
2018-09-14T11:53:56.896Z,6028.00
2018-09-14T11:54:56.878Z,5788.00
2018-09-14T11:55:56.871Z,5804.00
2018-09-14T11:56:56.864Z,10092.00
2018-09-14T11:57:56.860Z,9752.00
2018-09-14T11:58:56.851Z,6676.00
2018-09-14T11:59:56.842Z,8752.00
2018-09-14T12:00:56.832Z,10932.00
2018-09-14T12:01:56.826Z,10972.00
2018-09-14T12:02:56.816Z,10780.00
2018-09-14T12:03:56.811Z,10840.00
2018-09-14T12:04:56.801Z,10812.00
2018-09-14T12:05:56.797Z,10656.00
2018-09-14T12:06:56.788Z,10616.00
2018-09-14T12:07:56.775Z,10572.00
2018-09-14T12:08:56.769Z,8516.00
2018-09-14T12:09:56.765Z,5456.00
2018-09-14T12:10:56.753Z,9956.00
2018-09-14T12:11:56.759Z,10192.00
2018-09-14T12:12:56.738Z,10380.00
2018-09-14T12:13:56.770Z,10616.00
2018-09-14T12:14:56.721Z,8580.00
2018-09-14T12:15:56.716Z,7284.00
2018-09-14T12:16:56.718Z,7612.00
2018-09-14T12:17:56.699Z,10380.00
2018-09-14T12:18:56.696Z,10604.00
2018-09-14T12:19:56.689Z,10648.00
2018-09-14T12:20:56.675Z,10600.00
2018-09-14T12:21:56.673Z,10496.00
2018-09-14T12:22:56.664Z,10000.00
2018-09-14T12:23:56.657Z,10336.00